sensor_id;sensor_type;location;lat;lon;timestamp;pressure;altitude;pressure_sealevel;temperature;humidity
71109;BME280;59614;51.012;-1.648;2023-02-12T00:00:31;102857.59;;;8.11;91.64
71109;BME280;59614;51.012;-1.648;2023-02-12T00:02:56;102851.59;;;8.15;92.24
71109;BME280;59614;51.012;-1.648;2023-02-12T00:05:22;102853.66;;;7.98;92.38
71109;BME280;59614;51.012;-1.648;2023-02-12T00:07:47;102856.63;;;8.09;92.34
71109;BME280;59614;51.012;-1.648;2023-02-12T00:10:12;102848.84;;;8.12;92.37
71109;BME280;59614;51.012;-1.648;2023-02-12T00:12:38;102855.81;;;8.11;92.71
71109;BME280;59614;51.012;-1.648;2023-02-12T00:15:04;102857.31;;;8.03;92.38
71109;BME280;59614;51.012;-1.648;2023-02-12T00:17:29;102848.47;;;8.01;93.08
71109;BME280;59614;51.012;-1.648;2023-02-12T00:19:55;102849.56;;;8.08;92.57
71109;BME280;59614;51.012;-1.648;2023-02-12T00:22:20;102857.53;;;8.09;92.16
71109;BME280;59614;51.012;-1.648;2023-02-12T00:24:45;102843.59;;;8.12;91.95
71109;BME280;59614;51.012;-1.648;2023-02-12T00:27:11;102845.53;;;8.17;91.95
71109;BME280;59614;51.012;-1.648;2023-02-12T00:29:37;102836.78;;;8.18;91.20
71109;BME280;59614;51.012;-1.648;2023-02-12T00:32:02;102830.44;;;8.12;91.55
71109;BME280;59614;51.012;-1.648;2023-02-12T00:34:27;102832.84;;;8.06;91.95
71109;BME280;59614;51.012;-1.648;2023-02-12T00:36:53;102840.66;;;8.02;92.38
71109;BME280;59614;51.012;-1.648;2023-02-12T00:39:18;102837.72;;;7.93;92.67
71109;BME280;59614;51.012;-1.648;2023-02-12T00:41:44;102835.13;;;7.95;92.69
71109;BME280;59614;51.012;-1.648;2023-02-12T00:44:09;102835.78;;;7.87;93.21
71109;BME280;59614;51.012;-1.648;2023-02-12T00:46:34;102834.91;;;7.88;93.69
71109;BME280;59614;51.012;-1.648;2023-02-12T00:49:00;102835.38;;;7.75;93.74
71109;BME280;59614;51.012;-1.648;2023-02-12T00:51:25;102837.16;;;7.76;94.20
71109;BME280;59614;51.012;-1.648;2023-02-12T00:53:51;102837.47;;;7.85;94.33
71109;BME280;59614;51.012;-1.648;2023-02-12T00:56:16;102832.78;;;7.77;94.06
71109;BME280;59614;51.012;-1.648;2023-02-12T00:58:42;102839.16;;;7.83;93.93
71109;BME280;59614;51.012;-1.648;2023-02-12T01:01:07;102832.63;;;7.72;94.35
71109;BME280;59614;51.012;-1.648;2023-02-12T01:03:33;102835.44;;;7.78;94.57
71109;BME280;59614;51.012;-1.648;2023-02-12T01:05:58;102830.88;;;7.72;94.70
71109;BME280;59614;51.012;-1.648;2023-02-12T01:08:24;102837.41;;;7.58;95.21
71109;BME280;59614;51.012;-1.648;2023-02-12T01:10:57;102826.94;;;7.60;94.95
71109;BME280;59614;51.012;-1.648;2023-02-12T01:13:23;102821.28;;;7.73;94.14
71109;BME280;59614;51.012;-1.648;2023-02-12T01:16:00;102825.97;;;7.82;93.92
71109;BME280;59614;51.012;-1.648;2023-02-12T01:18:26;102830.31;;;7.81;94.08
71109;BME280;59614;51.012;-1.648;2023-02-12T01:20:51;102826.84;;;7.82;93.88
71109;BME280;59614;51.012;-1.648;2023-02-12T01:23:17;102827.56;;;7.78;94.13
71109;BME280;59614;51.012;-1.648;2023-02-12T01:25:42;102839.63;;;7.46;94.86
71109;BME280;59614;51.012;-1.648;2023-02-12T01:28:09;102831.09;;;7.53;95.04
71109;BME280;59614;51.012;-1.648;2023-02-12T01:30:35;102834.16;;;7.65;94.69
71109;BME280;59614;51.012;-1.648;2023-02-12T01:33:00;102824.69;;;7.70;94.78
71109;BME280;59614;51.012;-1.648;2023-02-12T01:35:26;102829.03;;;7.44;95.15
71109;BME280;59614;51.012;-1.648;2023-02-12T01:37:51;102829.88;;;7.43;95.12
71109;BME280;59614;51.012;-1.648;2023-02-12T01:40:17;102831.13;;;7.54;95.36
71109;BME280;59614;51.012;-1.648;2023-02-12T01:42:43;102827.59;;;7.52;94.62
71109;BME280;59614;51.012;-1.648;2023-02-12T01:47:37;102827.78;;;7.58;94.83
71109;BME280;59614;51.012;-1.648;2023-02-12T01:50:05;102822.69;;;7.63;94.20
71109;BME280;59614;51.012;-1.648;2023-02-12T01:52:35;102825.72;;;7.50;93.83
71109;BME280;59614;51.012;-1.648;2023-02-12T01:55:04;102831.41;;;7.36;94.51
71109;BME280;59614;51.012;-1.648;2023-02-12T01:57:34;102831.44;;;7.38;95.04
71109;BME280;59614;51.012;-1.648;2023-02-12T02:00:05;102833.75;;;7.29;95.38
71109;BME280;59614;51.012;-1.648;2023-02-12T02:02:33;102830.66;;;7.40;94.91
71109;BME280;59614;51.012;-1.648;2023-02-12T02:05:01;102835.31;;;7.48;94.39
71109;BME280;59614;51.012;-1.648;2023-02-12T02:07:27;102837.66;;;7.40;94.93
71109;BME280;59614;51.012;-1.648;2023-02-12T02:09:54;102831.50;;;7.39;95.49
71109;BME280;59614;51.012;-1.648;2023-02-12T02:12:20;102838.97;;;7.53;94.94
71109;BME280;59614;51.012;-1.648;2023-02-12T02:15:05;102837.75;;;7.43;94.73
71109;BME280;59614;51.012;-1.648;2023-02-12T02:18:09;102827.22;;;7.43;94.61
71109;BME280;59614;51.012;-1.648;2023-02-12T02:28:58;102824.44;;;7.63;94.25
71109;BME280;59614;51.012;-1.648;2023-02-12T02:34:26;102824.81;;;7.48;94.11
71109;BME280;59614;51.012;-1.648;2023-02-12T02:37:30;102829.25;;;7.50;94.11
71109;BME280;59614;51.012;-1.648;2023-02-12T02:40:01;102821.97;;;7.43;94.95
71109;BME280;59614;51.012;-1.648;2023-02-12T02:42:48;102826.31;;;7.41;95.04
71109;BME280;59614;51.012;-1.648;2023-02-12T02:45:50;102819.09;;;7.35;94.97
71109;BME280;59614;51.012;-1.648;2023-02-12T02:48:35;102814.84;;;7.39;94.73
71109;BME280;59614;51.012;-1.648;2023-02-12T02:51:10;102818.75;;;7.50;94.81
71109;BME280;59614;51.012;-1.648;2023-02-12T02:53:44;102813.25;;;7.18;95.45
71109;BME280;59614;51.012;-1.648;2023-02-12T02:56:15;102814.41;;;7.26;95.67
71109;BME280;59614;51.012;-1.648;2023-02-12T02:58:54;102808.38;;;7.29;95.68
71109;BME280;59614;51.012;-1.648;2023-02-12T03:01:27;102818.88;;;7.29;94.68
71109;BME280;59614;51.012;-1.648;2023-02-12T03:04:07;102809.13;;;7.25;94.57
71109;BME280;59614;51.012;-1.648;2023-02-12T03:06:42;102810.44;;;7.38;94.49
71109;BME280;59614;51.012;-1.648;2023-02-12T03:09:23;102809.84;;;7.21;94.69
71109;BME280;59614;51.012;-1.648;2023-02-12T03:11:54;102812.63;;;7.25;95.01
71109;BME280;59614;51.012;-1.648;2023-02-12T03:14:25;102814.69;;;7.34;95.11
71109;BME280;59614;51.012;-1.648;2023-02-12T03:19:34;102805.28;;;7.41;93.94
71109;BME280;59614;51.012;-1.648;2023-02-12T03:22:06;102814.63;;;7.33;93.98
71109;BME280;59614;51.012;-1.648;2023-02-12T03:24:42;102814.91;;;7.16;95.09
71109;BME280;59614;51.012;-1.648;2023-02-12T03:27:14;102806.03;;;7.13;95.38
71109;BME280;59614;51.012;-1.648;2023-02-12T03:29:41;102800.44;;;7.28;94.84
71109;BME280;59614;51.012;-1.648;2023-02-12T03:35:15;102806.75;;;7.08;95.04
71109;BME280;59614;51.012;-1.648;2023-02-12T03:37:45;102802.50;;;7.12;94.88
71109;BME280;59614;51.012;-1.648;2023-02-12T03:40:19;102803.28;;;7.09;94.57
71109;BME280;59614;51.012;-1.648;2023-02-12T03:43:09;102804.63;;;7.22;94.15
71109;BME280;59614;51.012;-1.648;2023-02-12T03:45:54;102795.16;;;7.26;93.80
71109;BME280;59614;51.012;-1.648;2023-02-12T03:48:32;102800.31;;;7.24;93.33
71109;BME280;59614;51.012;-1.648;2023-02-12T03:53:41;102790.63;;;6.98;93.98
71109;BME280;59614;51.012;-1.648;2023-02-12T03:56:11;102790.72;;;7.01;94.17
71109;BME280;59614;51.012;-1.648;2023-02-12T03:58:40;102788.41;;;7.10;93.97
71109;BME280;59614;51.012;-1.648;2023-02-12T04:01:07;102793.34;;;7.01;94.04
71109;BME280;59614;51.012;-1.648;2023-02-12T04:03:32;102793.50;;;7.05;93.56
71109;BME280;59614;51.012;-1.648;2023-02-12T04:05:58;102793.41;;;7.02;93.52
71109;BME280;59614;51.012;-1.648;2023-02-12T04:08:24;102790.63;;;6.98;93.78
71109;BME280;59614;51.012;-1.648;2023-02-12T04:16:51;102793.19;;;6.96;94.05
71109;BME280;59614;51.012;-1.648;2023-02-12T04:24:51;102798.88;;;6.84;94.31
71109;BME280;59614;51.012;-1.648;2023-02-12T04:32:30;102802.81;;;6.95;93.29
71109;BME280;59614;51.012;-1.648;2023-02-12T04:35:26;102803.75;;;6.98;93.08
71109;BME280;59614;51.012;-1.648;2023-02-12T04:38:01;102800.75;;;6.88;93.86
71109;BME280;59614;51.012;-1.648;2023-02-12T04:40:27;102796.53;;;6.92;93.06
71109;BME280;59614;51.012;-1.648;2023-02-12T04:42:53;102797.22;;;6.86;93.08
71109;BME280;59614;51.012;-1.648;2023-02-12T04:45:27;102797.75;;;7.02;92.46
71109;BME280;59614;51.012;-1.648;2023-02-12T04:47:53;102801.34;;;7.04;92.38
71109;BME280;59614;51.012;-1.648;2023-02-12T04:50:19;102805.03;;;7.09;92.59
71109;BME280;59614;51.012;-1.648;2023-02-12T04:52:45;102800.84;;;7.14;92.14
71109;BME280;59614;51.012;-1.648;2023-02-12T04:55:11;102803.41;;;7.13;92.39
71109;BME280;59614;51.012;-1.648;2023-02-12T04:57:36;102802.81;;;6.95;92.70
71109;BME280;59614;51.012;-1.648;2023-02-12T05:00:04;102798.50;;;6.98;92.89
71109;BME280;59614;51.012;-1.648;2023-02-12T05:02:30;102804.22;;;6.87;92.68
71109;BME280;59614;51.012;-1.648;2023-02-12T05:04:57;102810.81;;;6.76;93.28
71109;BME280;59614;51.012;-1.648;2023-02-12T05:07:22;102802.38;;;6.85;93.63
71109;BME280;59614;51.012;-1.648;2023-02-12T05:09:48;102801.56;;;6.86;92.75
71109;BME280;59614;51.012;-1.648;2023-02-12T05:12:13;102801.13;;;6.98;92.87
71109;BME280;59614;51.012;-1.648;2023-02-12T05:14:38;102804.94;;;7.06;93.00
71109;BME280;59614;51.012;-1.648;2023-02-12T05:17:04;102801.34;;;6.79;92.75
71109;BME280;59614;51.012;-1.648;2023-02-12T05:19:29;102806.25;;;6.94;92.40
71109;BME280;59614;51.012;-1.648;2023-02-12T05:21:55;102799.75;;;6.85;91.84
71109;BME280;59614;51.012;-1.648;2023-02-12T05:24:20;102800.88;;;6.91;91.69
71109;BME280;59614;51.012;-1.648;2023-02-12T05:26:48;102807.25;;;6.74;92.19
71109;BME280;59614;51.012;-1.648;2023-02-12T05:29:13;102813.34;;;6.73;91.96
71109;BME280;59614;51.012;-1.648;2023-02-12T05:31:39;102795.41;;;6.85;91.53
71109;BME280;59614;51.012;-1.648;2023-02-12T05:34:05;102799.06;;;6.89;91.54
71109;BME280;59614;51.012;-1.648;2023-02-12T05:36:31;102791.00;;;6.84;91.75
71109;BME280;59614;51.012;-1.648;2023-02-12T05:38:57;102789.38;;;6.88;91.76
71109;BME280;59614;51.012;-1.648;2023-02-12T05:41:25;102791.84;;;6.83;91.19
71109;BME280;59614;51.012;-1.648;2023-02-12T05:43:51;102784.69;;;6.79;91.42
71109;BME280;59614;51.012;-1.648;2023-02-12T05:46:20;102785.75;;;6.84;91.13
71109;BME280;59614;51.012;-1.648;2023-02-12T05:48:46;102784.13;;;6.88;90.84
71109;BME280;59614;51.012;-1.648;2023-02-12T05:51:13;102776.31;;;6.89;91.32
71109;BME280;59614;51.012;-1.648;2023-02-12T05:53:40;102774.41;;;6.85;90.80
71109;BME280;59614;51.012;-1.648;2023-02-12T05:56:23;102778.13;;;6.68;91.09
71109;BME280;59614;51.012;-1.648;2023-02-12T05:59:12;102770.34;;;6.69;91.05
71109;BME280;59614;51.012;-1.648;2023-02-12T06:01:40;102774.50;;;6.64;90.54
71109;BME280;59614;51.012;-1.648;2023-02-12T06:04:12;102786.09;;;6.69;89.83
71109;BME280;59614;51.012;-1.648;2023-02-12T06:06:37;102782.13;;;6.80;90.29
71109;BME280;59614;51.012;-1.648;2023-02-12T06:09:07;102775.47;;;6.90;89.73
71109;BME280;59614;51.012;-1.648;2023-02-12T06:11:32;102773.22;;;6.77;89.55
71109;BME280;59614;51.012;-1.648;2023-02-12T06:14:08;102782.13;;;6.80;88.67
71109;BME280;59614;51.012;-1.648;2023-02-12T06:16:35;102776.75;;;6.77;88.83
71109;BME280;59614;51.012;-1.648;2023-02-12T06:19:02;102784.69;;;6.79;88.48
71109;BME280;59614;51.012;-1.648;2023-02-12T06:21:29;102778.94;;;6.89;87.53
71109;BME280;59614;51.012;-1.648;2023-02-12T06:23:55;102777.38;;;6.94;87.20
71109;BME280;59614;51.012;-1.648;2023-02-12T06:26:21;102774.88;;;6.98;85.77
71109;BME280;59614;51.012;-1.648;2023-02-12T06:28:47;102776.22;;;6.86;86.54
71109;BME280;59614;51.012;-1.648;2023-02-12T06:31:22;102778.44;;;6.75;87.34
71109;BME280;59614;51.012;-1.648;2023-02-12T06:33:48;102774.84;;;6.73;87.24
71109;BME280;59614;51.012;-1.648;2023-02-12T06:36:15;102777.28;;;6.69;87.63
71109;BME280;59614;51.012;-1.648;2023-02-12T06:38:41;102781.09;;;6.77;87.22
71109;BME280;59614;51.012;-1.648;2023-02-12T06:41:06;102773.97;;;6.73;86.70
71109;BME280;59614;51.012;-1.648;2023-02-12T06:43:31;102775.84;;;6.77;86.90
71109;BME280;59614;51.012;-1.648;2023-02-12T06:46:00;102773.88;;;6.71;86.90
71109;BME280;59614;51.012;-1.648;2023-02-12T06:48:26;102777.03;;;6.85;87.27
71109;BME280;59614;51.012;-1.648;2023-02-12T06:50:51;102775.53;;;6.92;86.74
71109;BME280;59614;51.012;-1.648;2023-02-12T06:53:17;102774.75;;;6.94;87.77
71109;BME280;59614;51.012;-1.648;2023-02-12T06:55:42;102780.69;;;6.89;87.03
71109;BME280;59614;51.012;-1.648;2023-02-12T06:58:08;102774.91;;;6.75;86.68
71109;BME280;59614;51.012;-1.648;2023-02-12T07:00:33;102771.25;;;6.71;86.99
71109;BME280;59614;51.012;-1.648;2023-02-12T07:02:59;102771.81;;;6.85;87.07
71109;BME280;59614;51.012;-1.648;2023-02-12T07:05:25;102767.59;;;6.90;87.12
71109;BME280;59614;51.012;-1.648;2023-02-12T07:07:50;102774.63;;;6.91;87.13
71109;BME280;59614;51.012;-1.648;2023-02-12T07:10:16;102772.72;;;6.87;86.74
71109;BME280;59614;51.012;-1.648;2023-02-12T07:12:42;102778.94;;;6.89;86.95
71109;BME280;59614;51.012;-1.648;2023-02-12T07:15:08;102774.47;;;6.87;88.67
71109;BME280;59614;51.012;-1.648;2023-02-12T07:17:33;102779.75;;;6.88;89.25
71109;BME280;59614;51.012;-1.648;2023-02-12T07:19:59;102772.38;;;6.78;89.74
71109;BME280;59614;51.012;-1.648;2023-02-12T07:22:24;102773.38;;;6.82;90.73
71109;BME280;59614;51.012;-1.648;2023-02-12T07:24:50;102774.31;;;6.82;89.78
71109;BME280;59614;51.012;-1.648;2023-02-12T07:27:16;102781.56;;;6.89;89.58
71109;BME280;59614;51.012;-1.648;2023-02-12T07:29:41;102780.22;;;6.76;87.92
71109;BME280;59614;51.012;-1.648;2023-02-12T07:32:07;102775.19;;;6.83;87.76
71109;BME280;59614;51.012;-1.648;2023-02-12T07:34:32;102777.63;;;6.78;87.27
71109;BME280;59614;51.012;-1.648;2023-02-12T07:36:57;102782.97;;;6.79;87.23
71109;BME280;59614;51.012;-1.648;2023-02-12T07:39:23;102787.66;;;6.65;86.77
71109;BME280;59614;51.012;-1.648;2023-02-12T07:41:49;102782.22;;;6.84;86.26
71109;BME280;59614;51.012;-1.648;2023-02-12T07:44:14;102789.47;;;6.67;86.33
71109;BME280;59614;51.012;-1.648;2023-02-12T07:46:45;102785.28;;;6.72;86.51
71109;BME280;59614;51.012;-1.648;2023-02-12T07:49:14;102793.75;;;6.64;85.82
71109;BME280;59614;51.012;-1.648;2023-02-12T07:51:40;102785.00;;;6.64;86.57
71109;BME280;59614;51.012;-1.648;2023-02-12T07:54:05;102787.25;;;6.77;86.36
71109;BME280;59614;51.012;-1.648;2023-02-12T07:56:33;102791.38;;;6.71;85.59
71109;BME280;59614;51.012;-1.648;2023-02-12T07:59:01;102786.03;;;6.92;85.24
71109;BME280;59614;51.012;-1.648;2023-02-12T08:03:53;102788.06;;;6.99;85.42
71109;BME280;59614;51.012;-1.648;2023-02-12T08:06:22;102783.34;;;6.90;85.65
71109;BME280;59614;51.012;-1.648;2023-02-12T08:08:50;102790.09;;;6.84;84.99
71109;BME280;59614;51.012;-1.648;2023-02-12T08:11:16;102800.22;;;6.97;85.03
71109;BME280;59614;51.012;-1.648;2023-02-12T08:13:43;102789.88;;;7.02;84.72
71109;BME280;59614;51.012;-1.648;2023-02-12T08:16:12;102789.38;;;7.12;84.17
71109;BME280;59614;51.012;-1.648;2023-02-12T08:18:38;102790.22;;;7.11;84.23
71109;BME280;59614;51.012;-1.648;2023-02-12T08:21:10;102802.50;;;7.12;85.13
71109;BME280;59614;51.012;-1.648;2023-02-12T08:23:37;102794.06;;;7.21;84.51
71109;BME280;59614;51.012;-1.648;2023-02-12T08:26:06;102799.91;;;7.38;84.53
71109;BME280;59614;51.012;-1.648;2023-02-12T08:28:33;102799.28;;;7.45;85.77
71109;BME280;59614;51.012;-1.648;2023-02-12T08:31:11;102794.78;;;7.41;83.28
71109;BME280;59614;51.012;-1.648;2023-02-12T08:33:36;102797.34;;;7.14;82.87
71109;BME280;59614;51.012;-1.648;2023-02-12T08:38:27;102808.38;;;7.29;81.65
71109;BME280;59614;51.012;-1.648;2023-02-12T08:40:52;102804.78;;;7.51;81.77
71109;BME280;59614;51.012;-1.648;2023-02-12T08:43:18;102801.63;;;7.62;80.68
71109;BME280;59614;51.012;-1.648;2023-02-12T08:45:43;102801.34;;;7.80;81.50
71109;BME280;59614;51.012;-1.648;2023-02-12T08:48:09;102802.34;;;7.83;81.08
71109;BME280;59614;51.012;-1.648;2023-02-12T08:50:34;102803.19;;;7.56;80.69
71109;BME280;59614;51.012;-1.648;2023-02-12T08:53:00;102803.78;;;7.48;82.56
71109;BME280;59614;51.012;-1.648;2023-02-12T08:55:25;102809.72;;;7.42;82.74
71109;BME280;59614;51.012;-1.648;2023-02-12T08:57:50;102807.88;;;7.65;82.02
71109;BME280;59614;51.012;-1.648;2023-02-12T09:00:18;102809.09;;;7.75;81.37
71109;BME280;59614;51.012;-1.648;2023-02-12T09:02:44;102804.69;;;7.76;81.92
71109;BME280;59614;51.012;-1.648;2023-02-12T09:05:09;102805.69;;;7.79;82.81
71109;BME280;59614;51.012;-1.648;2023-02-12T09:07:34;102810.25;;;7.85;82.29
71109;BME280;59614;51.012;-1.648;2023-02-12T09:10:00;102800.66;;;7.85;82.62
71109;BME280;59614;51.012;-1.648;2023-02-12T09:12:25;102803.31;;;7.87;82.62
71109;BME280;59614;51.012;-1.648;2023-02-12T09:14:51;102808.94;;;7.70;81.48
71109;BME280;59614;51.012;-1.648;2023-02-12T09:17:16;102817.69;;;7.71;82.32
71109;BME280;59614;51.012;-1.648;2023-02-12T09:19:42;102805.50;;;7.73;81.45
71109;BME280;59614;51.012;-1.648;2023-02-12T09:22:07;102810.34;;;7.61;82.21
71109;BME280;59614;51.012;-1.648;2023-02-12T09:24:33;102809.69;;;7.68;82.50
71109;BME280;59614;51.012;-1.648;2023-02-12T09:26:58;102800.34;;;7.76;82.24
71109;BME280;59614;51.012;-1.648;2023-02-12T09:29:23;102808.13;;;7.73;82.63
71109;BME280;59614;51.012;-1.648;2023-02-12T09:31:49;102805.81;;;7.82;83.21
71109;BME280;59614;51.012;-1.648;2023-02-12T09:34:14;102808.81;;;7.93;82.73
71109;BME280;59614;51.012;-1.648;2023-02-12T09:36:40;102803.63;;;7.96;82.41
71109;BME280;59614;51.012;-1.648;2023-02-12T09:39:05;102804.13;;;7.84;81.42
71109;BME280;59614;51.012;-1.648;2023-02-12T09:41:39;102813.84;;;7.87;81.25
71109;BME280;59614;51.012;-1.648;2023-02-12T09:44:20;102814.94;;;7.94;82.33
71109;BME280;59614;51.012;-1.648;2023-02-12T09:46:48;102808.25;;;7.76;82.17
71109;BME280;59614;51.012;-1.648;2023-02-12T09:49:25;102808.47;;;7.84;82.41
71109;BME280;59614;51.012;-1.648;2023-02-12T09:51:56;102806.25;;;7.96;81.82
71109;BME280;59614;51.012;-1.648;2023-02-12T09:54:28;102798.06;;;7.87;82.51
71109;BME280;59614;51.012;-1.648;2023-02-12T09:56:57;102802.84;;;7.99;82.51
71109;BME280;59614;51.012;-1.648;2023-02-12T09:59:32;102806.09;;;7.92;82.07
71109;BME280;59614;51.012;-1.648;2023-02-12T10:01:59;102810.94;;;7.79;83.08
71109;BME280;59614;51.012;-1.648;2023-02-12T10:04:26;102804.69;;;8.01;83.12
71109;BME280;59614;51.012;-1.648;2023-02-12T10:10:02;102815.63;;;8.15;83.13
71109;BME280;59614;51.012;-1.648;2023-02-12T10:17:55;102806.94;;;7.91;83.34
71109;BME280;59614;51.012;-1.648;2023-02-12T10:25:52;102808.09;;;8.26;83.11
71109;BME280;59614;51.012;-1.648;2023-02-12T10:28:40;102803.06;;;8.34;83.29
71109;BME280;59614;51.012;-1.648;2023-02-12T10:33:50;102819.34;;;8.48;82.50
71109;BME280;59614;51.012;-1.648;2023-02-12T10:39:14;102811.63;;;8.27;83.27
71109;BME280;59614;51.012;-1.648;2023-02-12T10:44:23;102814.47;;;8.33;83.61
71109;BME280;59614;51.012;-1.648;2023-02-12T10:46:49;102823.75;;;8.22;83.98
71109;BME280;59614;51.012;-1.648;2023-02-12T10:49:16;102828.06;;;8.19;84.84
71109;BME280;59614;51.012;-1.648;2023-02-12T10:54:43;102819.53;;;8.56;83.57
71109;BME280;59614;51.012;-1.648;2023-02-12T10:57:23;102824.97;;;8.33;84.83
71109;BME280;59614;51.012;-1.648;2023-02-12T10:59:51;102826.44;;;8.25;84.87
71109;BME280;59614;51.012;-1.648;2023-02-12T11:02:21;102820.56;;;8.32;84.67
71109;BME280;59614;51.012;-1.648;2023-02-12T11:04:48;102809.25;;;8.36;85.20
71109;BME280;59614;51.012;-1.648;2023-02-12T11:07:13;102814.63;;;8.39;84.47
71109;BME280;59614;51.012;-1.648;2023-02-12T11:09:41;102810.78;;;8.28;86.11
71109;BME280;59614;51.012;-1.648;2023-02-12T11:12:30;102818.16;;;8.40;85.29
71109;BME280;59614;51.012;-1.648;2023-02-12T11:15:19;102812.41;;;8.24;86.75
71109;BME280;59614;51.012;-1.648;2023-02-12T11:17:58;102820.34;;;8.26;87.04
71109;BME280;59614;51.012;-1.648;2023-02-12T11:20:33;102824.13;;;8.07;87.41
71109;BME280;59614;51.012;-1.648;2023-02-12T11:23:04;102812.91;;;8.12;88.45
71109;BME280;59614;51.012;-1.648;2023-02-12T11:25:33;102811.28;;;8.16;88.89
71109;BME280;59614;51.012;-1.648;2023-02-12T11:28:16;102795.81;;;8.27;88.10
71109;BME280;59614;51.012;-1.648;2023-02-12T11:33:27;102803.16;;;8.08;89.08
71109;BME280;59614;51.012;-1.648;2023-02-12T11:35:56;102806.78;;;7.86;90.25
71109;BME280;59614;51.012;-1.648;2023-02-12T11:38:26;102806.72;;;8.10;90.65
71109;BME280;59614;51.012;-1.648;2023-02-12T11:40:58;102813.03;;;8.17;90.25
71109;BME280;59614;51.012;-1.648;2023-02-12T11:43:24;102805.41;;;8.25;89.93
71109;BME280;59614;51.012;-1.648;2023-02-12T11:45:53;102801.66;;;8.16;91.09
71109;BME280;59614;51.012;-1.648;2023-02-12T11:48:28;102801.47;;;8.10;91.96
71109;BME280;59614;51.012;-1.648;2023-02-12T11:50:56;102801.47;;;8.10;92.76
71109;BME280;59614;51.012;-1.648;2023-02-12T11:53:23;102790.25;;;8.16;93.14
71109;BME280;59614;51.012;-1.648;2023-02-12T11:55:55;102790.94;;;8.10;93.12
71109;BME280;59614;51.012;-1.648;2023-02-12T11:58:24;102796.66;;;7.97;93.30
71109;BME280;59614;51.012;-1.648;2023-02-12T12:05:52;102784.09;;;8.17;93.65
71109;BME280;59614;51.012;-1.648;2023-02-12T12:08:24;102777.09;;;8.16;92.49
71109;BME280;59614;51.012;-1.648;2023-02-12T12:13:29;102773.09;;;8.29;91.99
71109;BME280;59614;51.012;-1.648;2023-02-12T12:16:07;102775.06;;;8.07;91.62
71109;BME280;59614;51.012;-1.648;2023-02-12T12:19:01;102769.19;;;8.16;91.13
71109;BME280;59614;51.012;-1.648;2023-02-12T12:22:10;102763.56;;;8.03;90.59
71109;BME280;59614;51.012;-1.648;2023-02-12T12:27:26;102776.69;;;7.76;89.78
71109;BME280;59614;51.012;-1.648;2023-02-12T12:30:27;102777.84;;;7.84;88.97
71109;BME280;59614;51.012;-1.648;2023-02-12T12:33:00;102773.28;;;7.79;87.91
71109;BME280;59614;51.012;-1.648;2023-02-12T12:35:58;102763.56;;;7.76;86.87
71109;BME280;59614;51.012;-1.648;2023-02-12T12:44:00;102762.16;;;7.87;84.76
71109;BME280;59614;51.012;-1.648;2023-02-12T13:04:52;102742.72;;;7.56;86.52
71109;BME280;59614;51.012;-1.648;2023-02-12T13:10:33;102742.13;;;7.64;87.25
71109;BME280;59614;51.012;-1.648;2023-02-12T13:18:34;102736.50;;;7.53;87.12
71109;BME280;59614;51.012;-1.648;2023-02-12T13:23:56;102720.88;;;7.57;86.94
71109;BME280;59614;51.012;-1.648;2023-02-12T13:26:49;102712.44;;;7.68;87.37
71109;BME280;59614;51.012;-1.648;2023-02-12T13:29:25;102708.13;;;7.70;86.63
71109;BME280;59614;51.012;-1.648;2023-02-12T13:32:06;102707.47;;;7.77;87.21
71109;BME280;59614;51.012;-1.648;2023-02-12T13:34:36;102704.66;;;7.71;87.21
71109;BME280;59614;51.012;-1.648;2023-02-12T13:37:05;102704.91;;;7.79;87.88
71109;BME280;59614;51.012;-1.648;2023-02-12T13:39:36;102700.78;;;7.60;88.68
71109;BME280;59614;51.012;-1.648;2023-02-12T13:50:02;102694.88;;;7.67;90.12
71109;BME280;59614;51.012;-1.648;2023-02-12T13:56:16;102692.03;;;7.59;91.92
71109;BME280;59614;51.012;-1.648;2023-02-12T14:01:00;102689.69;;;7.68;91.11
71109;BME280;59614;51.012;-1.648;2023-02-12T14:03:28;102688.16;;;7.75;90.45
71109;BME280;59614;51.012;-1.648;2023-02-12T14:06:18;102687.53;;;7.56;91.38
71109;BME280;59614;51.012;-1.648;2023-02-12T14:08:52;102682.41;;;7.60;92.55
71109;BME280;59614;51.012;-1.648;2023-02-12T14:11:31;102677.31;;;7.66;91.78
71109;BME280;59614;51.012;-1.648;2023-02-12T14:14:00;102679.03;;;7.36;92.15
71109;BME280;59614;51.012;-1.648;2023-02-12T14:21:58;102670.94;;;7.57;89.08
71109;BME280;59614;51.012;-1.648;2023-02-12T14:27:04;102676.41;;;7.36;92.14
71109;BME280;59614;51.012;-1.648;2023-02-12T14:29:31;102669.00;;;7.24;94.78
71109;BME280;59614;51.012;-1.648;2023-02-12T14:31:56;102666.59;;;7.31;95.59
71109;BME280;59614;51.012;-1.648;2023-02-12T14:34:36;102661.44;;;7.08;97.26
71109;BME280;59614;51.012;-1.648;2023-02-12T14:37:30;102652.25;;;6.95;98.95
71109;BME280;59614;51.012;-1.648;2023-02-12T14:43:00;102647.63;;;7.14;99.82
71109;BME280;59614;51.012;-1.648;2023-02-12T14:45:32;102648.06;;;7.26;98.46
71109;BME280;59614;51.012;-1.648;2023-02-12T14:47:58;102647.78;;;6.92;99.28
71109;BME280;59614;51.012;-1.648;2023-02-12T14:50:28;102645.69;;;7.08;100.00
71109;BME280;59614;51.012;-1.648;2023-02-12T14:53:03;102645.28;;;6.95;99.38
71109;BME280;59614;51.012;-1.648;2023-02-12T14:55:31;102647.38;;;7.06;98.82
71109;BME280;59614;51.012;-1.648;2023-02-12T14:58:05;102642.25;;;6.85;99.47
71109;BME280;59614;51.012;-1.648;2023-02-12T15:00:44;102655.78;;;6.95;100.00
71109;BME280;59614;51.012;-1.648;2023-02-12T15:08:42;102629.94;;;6.82;99.81
71109;BME280;59614;51.012;-1.648;2023-02-12T15:13:59;102638.97;;;6.90;100.00
71109;BME280;59614;51.012;-1.648;2023-02-12T15:19:04;102628.97;;;6.80;100.00
71109;BME280;59614;51.012;-1.648;2023-02-12T15:21:31;102634.53;;;6.89;99.18
71109;BME280;59614;51.012;-1.648;2023-02-12T15:24:11;102639.03;;;6.92;99.91
71109;BME280;59614;51.012;-1.648;2023-02-12T15:26:49;102635.19;;;6.82;99.44
71109;BME280;59614;51.012;-1.648;2023-02-12T15:29:19;102624.19;;;6.94;99.13
71109;BME280;59614;51.012;-1.648;2023-02-12T15:31:50;102636.22;;;6.87;98.47
71109;BME280;59614;51.012;-1.648;2023-02-12T15:34:20;102630.88;;;6.84;98.40
71109;BME280;59614;51.012;-1.648;2023-02-12T15:36:46;102628.81;;;6.75;98.54